sensor_id;sensor_type;location;lat;lon;timestamp;temperature;humidity
23562;DHT22;11959;49.418;8.728;2023-07-31T00:00:27;18.10;99.90
23562;DHT22;11959;49.418;8.728;2023-07-31T00:02:53;18.20;99.90
23562;DHT22;11959;49.418;8.728;2023-07-31T00:05:19;18.30;99.90
23562;DHT22;11959;49.418;8.728;2023-07-31T00:07:45;18.30;99.90
23562;DHT22;11959;49.418;8.728;2023-07-31T00:10:10;18.40;99.90
23562;DHT22;11959;49.418;8.728;2023-07-31T00:12:37;18.50;99.90
23562;DHT22;11959;49.418;8.728;2023-07-31T00:15:03;18.40;99.90
23562;DHT22;11959;49.418;8.728;2023-07-31T00:17:30;18.40;99.90
23562;DHT22;11959;49.418;8.728;2023-07-31T00:19:55;18.40;99.90
23562;DHT22;11959;49.418;8.728;2023-07-31T00:22:21;18.30;99.90
23562;DHT22;11959;49.418;8.728;2023-07-31T00:24:46;18.30;99.90
23562;DHT22;11959;49.418;8.728;2023-07-31T00:27:12;18.30;99.90
23562;DHT22;11959;49.418;8.728;2023-07-31T00:29:38;18.30;99.90
23562;DHT22;11959;49.418;8.728;2023-07-31T00:32:04;18.30;99.90
23562;DHT22;11959;49.418;8.728;2023-07-31T00:34:29;18.30;99.90
23562;DHT22;11959;49.418;8.728;2023-07-31T00:36:55;18.30;99.90
23562;DHT22;11959;49.418;8.728;2023-07-31T00:39:21;18.30;99.90
23562;DHT22;11959;49.418;8.728;2023-07-31T00:41:46;18.30;99.90
23562;DHT22;11959;49.418;8.728;2023-07-31T00:44:12;18.30;99.90
23562;DHT22;11959;49.418;8.728;2023-07-31T00:46:38;18.30;99.90
23562;DHT22;11959;49.418;8.728;2023-07-31T00:49:04;18.30;99.90
23562;DHT22;11959;49.418;8.728;2023-07-31T00:51:30;18.30;99.90
23562;DHT22;11959;49.418;8.728;2023-07-31T00:53:56;18.30;99.90
23562;DHT22;11959;49.418;8.728;2023-07-31T00:56:22;18.30;99.90
23562;DHT22;11959;49.418;8.728;2023-07-31T00:58:49;18.30;99.90
23562;DHT22;11959;49.418;8.728;2023-07-31T01:01:14;18.30;99.90
23562;DHT22;11959;49.418;8.728;2023-07-31T01:03:40;18.20;99.90
23562;DHT22;11959;49.418;8.728;2023-07-31T01:06:20;18.20;99.90
23562;DHT22;11959;49.418;8.728;2023-07-31T01:08:58;18.20;99.90
23562;DHT22;11959;49.418;8.728;2023-07-31T01:11:43;18.30;99.90
23562;DHT22;11959;49.418;8.728;2023-07-31T01:14:10;18.30;99.90
23562;DHT22;11959;49.418;8.728;2023-07-31T01:16:36;18.30;99.90
23562;DHT22;11959;49.418;8.728;2023-07-31T01:19:01;18.30;99.90
23562;DHT22;11959;49.418;8.728;2023-07-31T01:26:34;18.30;99.90
23562;DHT22;11959;49.418;8.728;2023-07-31T01:29:23;18.30;99.90
23562;DHT22;11959;49.418;8.728;2023-07-31T01:31:53;18.30;99.90
23562;DHT22;11959;49.418;8.728;2023-07-31T01:34:21;18.30;99.90
23562;DHT22;11959;49.418;8.728;2023-07-31T01:36:47;18.30;99.90
23562;DHT22;11959;49.418;8.728;2023-07-31T01:39:13;18.30;99.90
23562;DHT22;11959;49.418;8.728;2023-07-31T01:41:41;18.30;99.90
23562;DHT22;11959;49.418;8.728;2023-07-31T01:44:06;18.30;99.90
23562;DHT22;11959;49.418;8.728;2023-07-31T01:46:32;18.30;99.90
23562;DHT22;11959;49.418;8.728;2023-07-31T01:48:58;18.30;99.90
23562;DHT22;11959;49.418;8.728;2023-07-31T01:51:23;18.30;99.90
23562;DHT22;11959;49.418;8.728;2023-07-31T01:53:49;18.30;99.90
23562;DHT22;11959;49.418;8.728;2023-07-31T01:56:15;18.30;99.90
23562;DHT22;11959;49.418;8.728;2023-07-31T01:58:41;18.40;99.90
23562;DHT22;11959;49.418;8.728;2023-07-31T02:01:06;18.30;99.90
23562;DHT22;11959;49.418;8.728;2023-07-31T02:03:32;18.30;99.90
23562;DHT22;11959;49.418;8.728;2023-07-31T02:05:57;18.30;99.90
23562;DHT22;11959;49.418;8.728;2023-07-31T02:08:23;18.40;99.90
23562;DHT22;11959;49.418;8.728;2023-07-31T02:10:49;18.40;99.90
23562;DHT22;11959;49.418;8.728;2023-07-31T02:13:14;18.40;99.90
23562;DHT22;11959;49.418;8.728;2023-07-31T02:15:40;18.30;99.90
23562;DHT22;11959;49.418;8.728;2023-07-31T02:18:05;18.40;99.90
23562;DHT22;11959;49.418;8.728;2023-07-31T02:20:34;18.30;99.90
23562;DHT22;11959;49.418;8.728;2023-07-31T02:23:00;18.30;99.90
23562;DHT22;11959;49.418;8.728;2023-07-31T02:25:26;18.30;99.90
23562;DHT22;11959;49.418;8.728;2023-07-31T02:27:51;18.30;99.90
23562;DHT22;11959;49.418;8.728;2023-07-31T02:30:17;18.40;99.90
23562;DHT22;11959;49.418;8.728;2023-07-31T02:32:43;18.40;99.90
23562;DHT22;11959;49.418;8.728;2023-07-31T02:35:08;18.30;99.90
23562;DHT22;11959;49.418;8.728;2023-07-31T02:37:34;18.30;99.90
23562;DHT22;11959;49.418;8.728;2023-07-31T02:40:00;18.30;99.90
23562;DHT22;11959;49.418;8.728;2023-07-31T02:42:26;18.30;99.90
23562;DHT22;11959;49.418;8.728;2023-07-31T02:44:51;18.30;99.90
23562;DHT22;11959;49.418;8.728;2023-07-31T02:47:21;18.30;99.90
23562;DHT22;11959;49.418;8.728;2023-07-31T02:49:47;18.30;99.90
23562;DHT22;11959;49.418;8.728;2023-07-31T02:52:13;18.30;99.90
23562;DHT22;11959;49.418;8.728;2023-07-31T02:54:38;18.30;99.90
23562;DHT22;11959;49.418;8.728;2023-07-31T02:57:04;18.30;99.90
23562;DHT22;11959;49.418;8.728;2023-07-31T02:59:30;18.30;99.90
23562;DHT22;11959;49.418;8.728;2023-07-31T03:01:56;18.30;99.90
23562;DHT22;11959;49.418;8.728;2023-07-31T03:04:21;18.30;99.90
23562;DHT22;11959;49.418;8.728;2023-07-31T03:06:47;18.30;99.90
23562;DHT22;11959;49.418;8.728;2023-07-31T03:09:13;18.30;99.90
23562;DHT22;11959;49.418;8.728;2023-07-31T03:11:38;18.30;99.90
23562;DHT22;11959;49.418;8.728;2023-07-31T03:14:04;18.30;99.90
23562;DHT22;11959;49.418;8.728;2023-07-31T03:16:29;18.30;99.90
23562;DHT22;11959;49.418;8.728;2023-07-31T03:18:55;18.30;99.90
23562;DHT22;11959;49.418;8.728;2023-07-31T03:21:21;18.30;99.90
23562;DHT22;11959;49.418;8.728;2023-07-31T03:23:46;18.40;99.90
23562;DHT22;11959;49.418;8.728;2023-07-31T03:26:12;18.40;99.90
23562;DHT22;11959;49.418;8.728;2023-07-31T03:28:37;18.40;99.90
23562;DHT22;11959;49.418;8.728;2023-07-31T03:31:03;18.40;99.90
23562;DHT22;11959;49.418;8.728;2023-07-31T03:33:29;18.40;99.90
23562;DHT22;11959;49.418;8.728;2023-07-31T03:35:55;18.40;99.90
23562;DHT22;11959;49.418;8.728;2023-07-31T03:38:20;18.40;99.90
23562;DHT22;11959;49.418;8.728;2023-07-31T03:40:46;18.30;99.90
23562;DHT22;11959;49.418;8.728;2023-07-31T03:43:12;18.30;99.90
23562;DHT22;11959;49.418;8.728;2023-07-31T03:45:38;18.30;99.90
23562;DHT22;11959;49.418;8.728;2023-07-31T03:48:04;18.30;99.90
23562;DHT22;11959;49.418;8.728;2023-07-31T03:50:35;18.30;99.90
23562;DHT22;11959;49.418;8.728;2023-07-31T03:53:01;18.40;99.90
23562;DHT22;11959;49.418;8.728;2023-07-31T03:55:27;18.30;99.90
23562;DHT22;11959;49.418;8.728;2023-07-31T03:57:52;18.30;99.90
23562;DHT22;11959;49.418;8.728;2023-07-31T04:00:18;18.30;99.90
23562;DHT22;11959;49.418;8.728;2023-07-31T04:02:44;18.20;99.90
23562;DHT22;11959;49.418;8.728;2023-07-31T04:05:10;18.20;99.90
23562;DHT22;11959;49.418;8.728;2023-07-31T04:07:36;18.20;99.90
23562;DHT22;11959;49.418;8.728;2023-07-31T04:10:03;18.20;99.90
23562;DHT22;11959;49.418;8.728;2023-07-31T04:12:28;18.10;99.90
23562;DHT22;11959;49.418;8.728;2023-07-31T04:14:54;18.10;99.90
23562;DHT22;11959;49.418;8.728;2023-07-31T04:17:20;18.10;99.90
23562;DHT22;11959;49.418;8.728;2023-07-31T04:19:46;18.10;99.90
23562;DHT22;11959;49.418;8.728;2023-07-31T04:22:11;18.10;99.90
23562;DHT22;11959;49.418;8.728;2023-07-31T04:24:37;18.10;99.90
23562;DHT22;11959;49.418;8.728;2023-07-31T04:27:03;18.10;99.90
23562;DHT22;11959;49.418;8.728;2023-07-31T04:29:28;18.10;99.90
23562;DHT22;11959;49.418;8.728;2023-07-31T04:31:54;18.10;99.90
23562;DHT22;11959;49.418;8.728;2023-07-31T04:34:20;18.10;99.90
23562;DHT22;11959;49.418;8.728;2023-07-31T04:36:45;18.10;99.90
23562;DHT22;11959;49.418;8.728;2023-07-31T04:39:11;18.10;99.90
23562;DHT22;11959;49.418;8.728;2023-07-31T04:41:37;18.10;99.90
23562;DHT22;11959;49.418;8.728;2023-07-31T04:44:02;18.10;99.90
23562;DHT22;11959;49.418;8.728;2023-07-31T04:46:29;18.10;99.90
23562;DHT22;11959;49.418;8.728;2023-07-31T04:48:55;18.10;99.90
23562;DHT22;11959;49.418;8.728;2023-07-31T04:51:20;18.10;99.90
23562;DHT22;11959;49.418;8.728;2023-07-31T04:53:46;18.10;99.90
23562;DHT22;11959;49.418;8.728;2023-07-31T04:56:12;18.10;99.90
23562;DHT22;11959;49.418;8.728;2023-07-31T04:58:38;18.10;99.90
23562;DHT22;11959;49.418;8.728;2023-07-31T05:01:03;18.10;99.90
23562;DHT22;11959;49.418;8.728;2023-07-31T05:03:29;18.20;99.90
23562;DHT22;11959;49.418;8.728;2023-07-31T05:05:55;18.20;99.90
23562;DHT22;11959;49.418;8.728;2023-07-31T05:08:20;18.10;99.90
23562;DHT22;11959;49.418;8.728;2023-07-31T05:10:46;18.10;99.90
23562;DHT22;11959;49.418;8.728;2023-07-31T05:13:12;18.10;99.90
23562;DHT22;11959;49.418;8.728;2023-07-31T05:15:37;18.10;99.90
23562;DHT22;11959;49.418;8.728;2023-07-31T05:18:03;18.10;99.90
23562;DHT22;11959;49.418;8.728;2023-07-31T05:20:29;18.00;99.90
23562;DHT22;11959;49.418;8.728;2023-07-31T05:22:54;18.00;99.90
23562;DHT22;11959;49.418;8.728;2023-07-31T05:25:20;18.10;99.90
23562;DHT22;11959;49.418;8.728;2023-07-31T05:27:46;18.20;99.90
23562;DHT22;11959;49.418;8.728;2023-07-31T05:30:11;18.10;99.90
23562;DHT22;11959;49.418;8.728;2023-07-31T05:32:37;18.20;99.90
23562;DHT22;11959;49.418;8.728;2023-07-31T05:35:03;18.10;99.90
23562;DHT22;11959;49.418;8.728;2023-07-31T05:37:28;18.20;99.90
23562;DHT22;11959;49.418;8.728;2023-07-31T05:39:54;18.10;99.90
23562;DHT22;11959;49.418;8.728;2023-07-31T05:42:20;18.10;99.90
23562;DHT22;11959;49.418;8.728;2023-07-31T05:44:45;18.10;99.90
23562;DHT22;11959;49.418;8.728;2023-07-31T05:47:12;18.10;99.90
23562;DHT22;11959;49.418;8.728;2023-07-31T05:49:38;18.10;99.90
23562;DHT22;11959;49.418;8.728;2023-07-31T05:52:03;18.20;99.90
23562;DHT22;11959;49.418;8.728;2023-07-31T05:54:29;18.20;99.90
23562;DHT22;11959;49.418;8.728;2023-07-31T05:56:55;18.20;99.90
23562;DHT22;11959;49.418;8.728;2023-07-31T05:59:21;18.20;99.90
23562;DHT22;11959;49.418;8.728;2023-07-31T06:01:46;18.20;99.90
23562;DHT22;11959;49.418;8.728;2023-07-31T06:04:12;18.20;99.90
23562;DHT22;11959;49.418;8.728;2023-07-31T06:06:38;18.30;99.90
23562;DHT22;11959;49.418;8.728;2023-07-31T06:09:03;18.30;99.90
23562;DHT22;11959;49.418;8.728;2023-07-31T06:11:30;18.30;99.90
23562;DHT22;11959;49.418;8.728;2023-07-31T06:13:56;18.40;99.90
23562;DHT22;11959;49.418;8.728;2023-07-31T06:16:22;18.40;99.90
23562;DHT22;11959;49.418;8.728;2023-07-31T06:18:48;18.40;99.90
23562;DHT22;11959;49.418;8.728;2023-07-31T06:21:14;18.30;99.90
23562;DHT22;11959;49.418;8.728;2023-07-31T06:23:39;18.30;99.90
23562;DHT22;11959;49.418;8.728;2023-07-31T06:26:05;18.30;99.90
23562;DHT22;11959;49.418;8.728;2023-07-31T06:28:32;18.20;99.90
23562;DHT22;11959;49.418;8.728;2023-07-31T06:30:58;18.20;99.90
23562;DHT22;11959;49.418;8.728;2023-07-31T06:33:24;18.20;99.90
23562;DHT22;11959;49.418;8.728;2023-07-31T06:35:50;18.30;99.90
23562;DHT22;11959;49.418;8.728;2023-07-31T06:40:43;18.30;99.90
23562;DHT22;11959;49.418;8.728;2023-07-31T06:43:09;18.40;99.90
23562;DHT22;11959;49.418;8.728;2023-07-31T06:45:35;18.30;99.90
23562;DHT22;11959;49.418;8.728;2023-07-31T06:48:02;18.40;99.90
23562;DHT22;11959;49.418;8.728;2023-07-31T06:50:31;18.40;99.90
23562;DHT22;11959;49.418;8.728;2023-07-31T06:52:57;18.40;99.90
23562;DHT22;11959;49.418;8.728;2023-07-31T06:55:23;18.50;99.90
23562;DHT22;11959;49.418;8.728;2023-07-31T06:57:51;18.50;99.90
23562;DHT22;11959;49.418;8.728;2023-07-31T07:00:17;18.70;99.90
23562;DHT22;11959;49.418;8.728;2023-07-31T07:02:43;18.70;99.90
23562;DHT22;11959;49.418;8.728;2023-07-31T07:05:09;18.70;99.90
23562;DHT22;11959;49.418;8.728;2023-07-31T07:07:35;18.70;99.90
23562;DHT22;11959;49.418;8.728;2023-07-31T07:10:02;18.80;99.90
23562;DHT22;11959;49.418;8.728;2023-07-31T07:12:30;18.80;99.90
23562;DHT22;11959;49.418;8.728;2023-07-31T07:14:56;18.80;99.90
23562;DHT22;11959;49.418;8.728;2023-07-31T07:17:23;18.80;99.90
23562;DHT22;11959;49.418;8.728;2023-07-31T07:19:49;18.90;99.90
23562;DHT22;11959;49.418;8.728;2023-07-31T07:22:14;19.00;99.90
23562;DHT22;11959;49.418;8.728;2023-07-31T07:24:40;19.00;99.90
23562;DHT22;11959;49.418;8.728;2023-07-31T07:27:06;19.10;99.90
23562;DHT22;11959;49.418;8.728;2023-07-31T07:29:34;19.10;99.90
23562;DHT22;11959;49.418;8.728;2023-07-31T07:32:00;19.20;99.90
23562;DHT22;11959;49.418;8.728;2023-07-31T07:34:27;19.20;99.90
23562;DHT22;11959;49.418;8.728;2023-07-31T07:36:53;19.20;99.90
23562;DHT22;11959;49.418;8.728;2023-07-31T07:39:19;19.30;99.90
23562;DHT22;11959;49.418;8.728;2023-07-31T07:41:46;19.30;99.90
23562;DHT22;11959;49.418;8.728;2023-07-31T07:44:12;19.30;99.90
23562;DHT22;11959;49.418;8.728;2023-07-31T07:46:38;19.30;99.90
23562;DHT22;11959;49.418;8.728;2023-07-31T07:49:04;19.20;99.90
23562;DHT22;11959;49.418;8.728;2023-07-31T07:51:30;19.30;99.90
23562;DHT22;11959;49.418;8.728;2023-07-31T07:54:00;19.30;99.90
23562;DHT22;11959;49.418;8.728;2023-07-31T07:56:26;19.40;99.90
23562;DHT22;11959;49.418;8.728;2023-07-31T07:58:52;19.40;99.90
23562;DHT22;11959;49.418;8.728;2023-07-31T08:01:18;19.30;99.90
23562;DHT22;11959;49.418;8.728;2023-07-31T08:03:44;19.30;99.90
23562;DHT22;11959;49.418;8.728;2023-07-31T08:06:10;19.40;99.90
23562;DHT22;11959;49.418;8.728;2023-07-31T08:08:36;19.40;99.90
23562;DHT22;11959;49.418;8.728;2023-07-31T08:11:02;19.40;99.90
23562;DHT22;11959;49.418;8.728;2023-07-31T08:13:28;19.40;99.90
23562;DHT22;11959;49.418;8.728;2023-07-31T08:15:54;19.50;99.90
23562;DHT22;11959;49.418;8.728;2023-07-31T08:18:20;19.60;99.90
23562;DHT22;11959;49.418;8.728;2023-07-31T08:20:45;19.70;99.90
23562;DHT22;11959;49.418;8.728;2023-07-31T08:23:11;19.80;99.90
23562;DHT22;11959;49.418;8.728;2023-07-31T08:25:38;20.00;99.90
23562;DHT22;11959;49.418;8.728;2023-07-31T08:28:04;20.10;99.90
23562;DHT22;11959;49.418;8.728;2023-07-31T08:30:30;20.20;99.90
23562;DHT22;11959;49.418;8.728;2023-07-31T08:32:56;20.40;99.90
23562;DHT22;11959;49.418;8.728;2023-07-31T08:35:21;20.50;99.90
23562;DHT22;11959;49.418;8.728;2023-07-31T08:37:47;20.60;99.90
23562;DHT22;11959;49.418;8.728;2023-07-31T08:40:13;20.70;99.90
23562;DHT22;11959;49.418;8.728;2023-07-31T08:42:57;20.80;99.90
23562;DHT22;11959;49.418;8.728;2023-07-31T08:45:27;21.00;99.90
23562;DHT22;11959;49.418;8.728;2023-07-31T08:47:53;21.10;99.90
23562;DHT22;11959;49.418;8.728;2023-07-31T08:50:21;21.10;99.90
23562;DHT22;11959;49.418;8.728;2023-07-31T08:52:48;21.20;99.90
23562;DHT22;11959;49.418;8.728;2023-07-31T08:55:14;21.30;99.90
23562;DHT22;11959;49.418;8.728;2023-07-31T08:57:40;21.40;99.90
23562;DHT22;11959;49.418;8.728;2023-07-31T09:00:09;21.50;99.90
23562;DHT22;11959;49.418;8.728;2023-07-31T09:02:41;21.60;99.90
23562;DHT22;11959;49.418;8.728;2023-07-31T09:05:08;21.70;99.90
23562;DHT22;11959;49.418;8.728;2023-07-31T09:07:35;21.70;99.90
23562;DHT22;11959;49.418;8.728;2023-07-31T09:10:04;21.80;99.90
23562;DHT22;11959;49.418;8.728;2023-07-31T09:12:31;21.70;99.90
23562;DHT22;11959;49.418;8.728;2023-07-31T09:15:00;21.60;99.90
23562;DHT22;11959;49.418;8.728;2023-07-31T09:17:33;21.60;99.90
23562;DHT22;11959;49.418;8.728;2023-07-31T09:20:19;21.50;99.90
23562;DHT22;11959;49.418;8.728;2023-07-31T09:22:47;21.50;99.90
23562;DHT22;11959;49.418;8.728;2023-07-31T09:25:26;21.40;99.90
23562;DHT22;11959;49.418;8.728;2023-07-31T09:27:58;21.60;99.90
23562;DHT22;11959;49.418;8.728;2023-07-31T09:30:23;21.70;99.90
23562;DHT22;11959;49.418;8.728;2023-07-31T09:32:50;21.80;99.90
23562;DHT22;11959;49.418;8.728;2023-07-31T09:35:19;21.80;99.90
23562;DHT22;11959;49.418;8.728;2023-07-31T09:37:53;21.90;99.90
23562;DHT22;11959;49.418;8.728;2023-07-31T09:40:31;22.00;99.90
23562;DHT22;11959;49.418;8.728;2023-07-31T09:43:01;22.10;99.90
23562;DHT22;11959;49.418;8.728;2023-07-31T09:45:28;22.20;99.90
23562;DHT22;11959;49.418;8.728;2023-07-31T09:47:54;22.30;99.90
23562;DHT22;11959;49.418;8.728;2023-07-31T09:50:21;22.50;99.90
23562;DHT22;11959;49.418;8.728;2023-07-31T09:52:47;22.50;99.90
23562;DHT22;11959;49.418;8.728;2023-07-31T09:55:13;22.50;99.90
23562;DHT22;11959;49.418;8.728;2023-07-31T09:57:45;22.40;99.90
23562;DHT22;11959;49.418;8.728;2023-07-31T10:00:15;22.40;99.90
23562;DHT22;11959;49.418;8.728;2023-07-31T10:02:41;22.40;99.90
23562;DHT22;11959;49.418;8.728;2023-07-31T10:05:08;22.40;99.90
23562;DHT22;11959;49.418;8.728;2023-07-31T10:07:37;22.50;99.90
23562;DHT22;11959;49.418;8.728;2023-07-31T10:10:07;22.60;99.90
23562;DHT22;11959;49.418;8.728;2023-07-31T10:12:35;22.80;99.90
23562;DHT22;11959;49.418;8.728;2023-07-31T10:15:01;22.70;99.90
23562;DHT22;11959;49.418;8.728;2023-07-31T10:17:30;22.70;99.90
23562;DHT22;11959;49.418;8.728;2023-07-31T10:19:58;22.60;99.90
23562;DHT22;11959;49.418;8.728;2023-07-31T10:22:27;22.50;99.90
23562;DHT22;11959;49.418;8.728;2023-07-31T10:24:54;22.50;99.90
23562;DHT22;11959;49.418;8.728;2023-07-31T10:27:22;22.40;99.90
23562;DHT22;11959;49.418;8.728;2023-07-31T10:29:49;22.50;99.90
23562;DHT22;11959;49.418;8.728;2023-07-31T10:32:17;22.40;99.90
23562;DHT22;11959;49.418;8.728;2023-07-31T10:34:43;22.50;99.90
23562;DHT22;11959;49.418;8.728;2023-07-31T10:37:26;22.50;99.90
23562;DHT22;11959;49.418;8.728;2023-07-31T10:40:05;22.50;99.90
23562;DHT22;11959;49.418;8.728;2023-07-31T10:45:04;22.60;99.90
23562;DHT22;11959;49.418;8.728;2023-07-31T10:47:30;22.70;99.90
23562;DHT22;11959;49.418;8.728;2023-07-31T10:50:37;22.80;99.90
23562;DHT22;11959;49.418;8.728;2023-07-31T10:53:03;22.90;99.90
23562;DHT22;11959;49.418;8.728;2023-07-31T10:55:31;23.00;99.90
23562;DHT22;11959;49.418;8.728;2023-07-31T10:58:13;23.00;99.90
23562;DHT22;11959;49.418;8.728;2023-07-31T11:00:41;23.00;99.90
23562;DHT22;11959;49.418;8.728;2023-07-31T11:05:50;22.90;99.90
23562;DHT22;11959;49.418;8.728;2023-07-31T11:08:17;22.80;99.90
23562;DHT22;11959;49.418;8.728;2023-07-31T11:10:43;22.80;99.90
23562;DHT22;11959;49.418;8.728;2023-07-31T11:13:09;22.80;99.90
23562;DHT22;11959;49.418;8.728;2023-07-31T11:15:36;22.80;99.90
23562;DHT22;11959;49.418;8.728;2023-07-31T11:18:02;22.80;99.90
23562;DHT22;11959;49.418;8.728;2023-07-31T11:20:35;22.90;99.90
23562;DHT22;11959;49.418;8.728;2023-07-31T11:23:07;22.80;99.90
23562;DHT22;11959;49.418;8.728;2023-07-31T11:25:35;22.90;99.90
23562;DHT22;11959;49.418;8.728;2023-07-31T11:28:15;23.00;99.90
23562;DHT22;11959;49.418;8.728;2023-07-31T11:30:42;23.00;99.90
23562;DHT22;11959;49.418;8.728;2023-07-31T11:33:10;23.10;99.90
23562;DHT22;11959;49.418;8.728;2023-07-31T11:38:07;23.30;99.90
23562;DHT22;11959;49.418;8.728;2023-07-31T11:40:42;23.30;99.90
23562;DHT22;11959;49.418;8.728;2023-07-31T11:43:08;23.30;99.90
23562;DHT22;11959;49.418;8.728;2023-07-31T11:45:33;23.30;99.90
23562;DHT22;11959;49.418;8.728;2023-07-31T11:48:00;23.30;99.90
23562;DHT22;11959;49.418;8.728;2023-07-31T11:50:26;23.30;99.90
23562;DHT22;11959;49.418;8.728;2023-07-31T11:53:07;23.30;99.90
23562;DHT22;11959;49.418;8.728;2023-07-31T11:55:34;23.10;99.90
23562;DHT22;11959;49.418;8.728;2023-07-31T11:58:00;23.00;99.90
23562;DHT22;11959;49.418;8.728;2023-07-31T12:00:27;23.00;99.90
23562;DHT22;11959;49.418;8.728;2023-07-31T12:02:53;22.90;99.90
23562;DHT22;11959;49.418;8.728;2023-07-31T12:05:19;23.00;99.90
23562;DHT22;11959;49.418;8.728;2023-07-31T12:07:49;23.10;99.90
23562;DHT22;11959;49.418;8.728;2023-07-31T12:10:31;23.10;99.90
23562;DHT22;11959;49.418;8.728;2023-07-31T12:13:00;23.10;99.90
23562;DHT22;11959;49.418;8.728;2023-07-31T12:15:44;23.10;99.90
23562;DHT22;11959;49.418;8.728;2023-07-31T12:18:12;23.10;99.90
23562;DHT22;11959;49.418;8.728;2023-07-31T12:20:58;23.00;99.90
23562;DHT22;11959;49.418;8.728;2023-07-31T12:23:29;23.00;99.90
23562;DHT22;11959;49.418;8.728;2023-07-31T12:28:40;23.00;99.90
23562;DHT22;11959;49.418;8.728;2023-07-31T12:31:09;23.00;99.90
23562;DHT22;11959;49.418;8.728;2023-07-31T12:33:37;22.90;99.90
23562;DHT22;11959;49.418;8.728;2023-07-31T12:36:09;23.00;99.90
23562;DHT22;11959;49.418;8.728;2023-07-31T12:38:35;23.00;99.90
23562;DHT22;11959;49.418;8.728;2023-07-31T12:41:01;23.00;99.90
23562;DHT22;11959;49.418;8.728;2023-07-31T12:43:27;23.00;99.90
23562;DHT22;11959;49.418;8.728;2023-07-31T12:45:54;23.10;99.90
23562;DHT22;11959;49.418;8.728;2023-07-31T12:48:20;23.10;99.90
23562;DHT22;11959;49.418;8.728;2023-07-31T12:50:46;23.10;99.90
23562;DHT22;11959;49.418;8.728;2023-07-31T12:53:11;23.20;99.90
23562;DHT22;11959;49.418;8.728;2023-07-31T12:55:37;23.00;99.90
23562;DHT22;11959;49.418;8.728;2023-07-31T12:58:03;22.90;99.90
23562;DHT22;11959;49.418;8.728;2023-07-31T13:00:29;22.80;99.90
23562;DHT22;11959;49.418;8.728;2023-07-31T13:02:55;22.90;99.90
23562;DHT22;11959;49.418;8.728;2023-07-31T13:05:20;22.90;99.90
23562;DHT22;11959;49.418;8.728;2023-07-31T13:07:47;22.80;99.90
23562;DHT22;11959;49.418;8.728;2023-07-31T13:10:13;22.80;99.90
23562;DHT22;11959;49.418;8.728;2023-07-31T13:12:38;22.80;99.90
23562;DHT22;11959;49.418;8.728;2023-07-31T13:15:05;22.80;99.90
23562;DHT22;11959;49.418;8.728;2023-07-31T13:17:31;22.90;99.90
23562;DHT22;11959;49.418;8.728;2023-07-31T13:19:57;22.80;99.90
23562;DHT22;11959;49.418;8.728;2023-07-31T13:22:22;22.90;99.90
23562;DHT22;11959;49.418;8.728;2023-07-31T13:24:48;23.00;99.90
23562;DHT22;11959;49.418;8.728;2023-07-31T13:27:14;23.00;99.90
23562;DHT22;11959;49.418;8.728;2023-07-31T13:29:45;22.90;99.90
23562;DHT22;11959;49.418;8.728;2023-07-31T13:32:11;23.00;99.90
23562;DHT22;11959;49.418;8.728;2023-07-31T13:34:37;23.00;99.90
23562;DHT22;11959;49.418;8.728;2023-07-31T13:37:03;23.10;99.90
23562;DHT22;11959;49.418;8.728;2023-07-31T13:39:28;23.20;99.90
23562;DHT22;11959;49.418;8.728;2023-07-31T13:41:54;23.40;99.90
23562;DHT22;11959;49.418;8.728;2023-07-31T13:44:20;23.40;99.90
23562;DHT22;11959;49.418;8.728;2023-07-31T13:46:46;23.50;99.90
23562;DHT22;11959;49.418;8.728;2023-07-31T13:49:12;23.50;99.90
23562;DHT22;11959;49.418;8.728;2023-07-31T13:51:37;23.60;99.90
23562;DHT22;11959;49.418;8.728;2023-07-31T13:54:04;23.60;99.90
23562;DHT22;11959;49.418;8.728;2023-07-31T13:56:31;23.60;99.90
23562;DHT22;11959;49.418;8.728;2023-07-31T13:58:57;23.40;99.90
23562;DHT22;11959;49.418;8.728;2023-07-31T14:01:23;23.40;99.90
23562;DHT22;11959;49.418;8.728;2023-07-31T14:03:49;23.40;99.90
23562;DHT22;11959;49.418;8.728;2023-07-31T14:06:15;23.10;99.90
23562;DHT22;11959;49.418;8.728;2023-07-31T14:08:40;23.10;99.90
23562;DHT22;11959;49.418;8.728;2023-07-31T14:11:06;23.10;99.90
23562;DHT22;11959;49.418;8.728;2023-07-31T14:13:32;22.90;99.90
23562;DHT22;11959;49.418;8.728;2023-07-31T14:15:57;22.80;99.90
23562;DHT22;11959;49.418;8.728;2023-07-31T14:18:23;22.80;99.90
23562;DHT22;11959;49.418;8.728;2023-07-31T14:20:48;22.70;99.90
23562;DHT22;11959;49.418;8.728;2023-07-31T14:23:14;22.70;99.90
23562;DHT22;11959;49.418;8.728;2023-07-31T14:25:41;22.80;99.90
23562;DHT22;11959;49.418;8.728;2023-07-31T14:28:06;22.60;99.90
23562;DHT22;11959;49.418;8.728;2023-07-31T14:30:32;22.70;99.90
23562;DHT22;11959;49.418;8.728;2023-07-31T14:32:58;22.70;99.90
23562;DHT22;11959;49.418;8.728;2023-07-31T14:35:25;22.60;99.90
23562;DHT22;11959;49.418;8.728;2023-07-31T14:37:51;22.70;99.90
23562;DHT22;11959;49.418;8.728;2023-07-31T14:40:17;22.80;99.90
23562;DHT22;11959;49.418;8.728;2023-07-31T14:42:43;22.80;99.90
23562;DHT22;11959;49.418;8.728;2023-07-31T14:45:09;22.70;99.90
23562;DHT22;11959;49.418;8.728;2023-07-31T14:47:36;22.70;99.90
23562;DHT22;11959;49.418;8.728;2023-07-31T14:50:01;22.80;99.90
23562;DHT22;11959;49.418;8.728;2023-07-31T14:52:27;22.80;99.90
23562;DHT22;11959;49.418;8.728;2023-07-31T14:54:53;22.80;99.90
23562;DHT22;11959;49.418;8.728;2023-07-31T14:57:19;22.80;99.90
23562;DHT22;11959;49.418;8.728;2023-07-31T14:59:45;22.90;99.90
23562;DHT22;11959;49.418;8.728;2023-07-31T15:02:11;22.70;99.90
23562;DHT22;11959;49.418;8.728;2023-07-31T15:04:37;22.80;99.90
23562;DHT22;11959;49.418;8.728;2023-07-31T15:07:03;22.80;99.90
23562;DHT22;11959;49.418;8.728;2023-07-31T15:09:28;22.80;99.90
23562;DHT22;11959;49.418;8.728;2023-07-31T15:11:56;22.90;99.90
23562;DHT22;11959;49.418;8.728;2023-07-31T15:14:22;23.00;99.90
23562;DHT22;11959;49.418;8.728;2023-07-31T15:16:48;23.10;99.90
23562;DHT22;11959;49.418;8.728;2023-07-31T15:19:14;23.30;99.90
23562;DHT22;11959;49.418;8.728;2023-07-31T15:21:40;23.40;99.90
23562;DHT22;11959;49.418;8.728;2023-07-31T15:24:06;23.60;99.90
23562;DHT22;11959;49.418;8.728;2023-07-31T15:26:32;23.70;99.90
23562;DHT22;11959;49.418;8.728;2023-07-31T15:29:03;23.70;99.90
23562;DHT22;11959;49.418;8.728;2023-07-31T15:31:38;23.70;99.90
23562;DHT22;11959;49.418;8.728;2023-07-31T15:34:04;23.60;99.90
23562;DHT22;11959;49.418;8.728;2023-07-31T15:36:29;23.60;99.90
23562;DHT22;11959;49.418;8.728;2023-07-31T15:38:55;23.50;99.90
23562;DHT22;11959;49.418;8.728;2023-07-31T15:41:21;23.50;99.90
23562;DHT22;11959;49.418;8.728;2023-07-31T15:43:46;23.50;99.90
23562;DHT22;11959;49.418;8.728;2023-07-31T15:46:13;23.50;99.90